sensor_id;sensor_type;location;lat;lon;timestamp;P1;durP1;ratioP1;P2;durP2;ratioP2
58240;SDS011;45058;55.772;38.224;2022-11-15T00:01:27;4.40;;;0.80;;
58240;SDS011;45058;55.772;38.224;2022-11-15T00:04:11;1.03;;;0.40;;
58240;SDS011;45058;55.772;38.224;2022-11-15T00:06:56;3.47;;;0.73;;
58240;SDS011;45058;55.772;38.224;2022-11-15T00:09:40;3.53;;;0.57;;
58240;SDS011;45058;55.772;38.224;2022-11-15T00:12:24;5.43;;;1.00;;
58240;SDS011;45058;55.772;38.224;2022-11-15T00:15:11;3.07;;;0.63;;
58240;SDS011;45058;55.772;38.224;2022-11-15T00:17:56;4.13;;;0.70;;
58240;SDS011;45058;55.772;38.224;2022-11-15T00:20:40;5.37;;;0.67;;
58240;SDS011;45058;55.772;38.224;2022-11-15T00:23:25;1.67;;;0.43;;
58240;SDS011;45058;55.772;38.224;2022-11-15T00:26:10;2.67;;;0.70;;
58240;SDS011;45058;55.772;38.224;2022-11-15T00:28:56;5.57;;;1.10;;
58240;SDS011;45058;55.772;38.224;2022-11-15T00:31:41;3.03;;;0.70;;
58240;SDS011;45058;55.772;38.224;2022-11-15T00:34:25;3.43;;;0.60;;
58240;SDS011;45058;55.772;38.224;2022-11-15T00:37:09;2.57;;;0.80;;
58240;SDS011;45058;55.772;38.224;2022-11-15T00:39:54;2.33;;;0.80;;
58240;SDS011;45058;55.772;38.224;2022-11-15T00:42:38;5.13;;;1.10;;
58240;SDS011;45058;55.772;38.224;2022-11-15T00:45:23;4.33;;;1.17;;
58240;SDS011;45058;55.772;38.224;2022-11-15T00:48:08;2.17;;;0.70;;
58240;SDS011;45058;55.772;38.224;2022-11-15T00:50:53;5.28;;;0.85;;
58240;SDS011;45058;55.772;38.224;2022-11-15T00:53:38;5.83;;;1.80;;
58240;SDS011;45058;55.772;38.224;2022-11-15T00:56:22;9.30;;;1.93;;
58240;SDS011;45058;55.772;38.224;2022-11-15T00:59:07;5.67;;;1.70;;
58240;SDS011;45058;55.772;38.224;2022-11-15T01:01:51;4.60;;;1.80;;
58240;SDS011;45058;55.772;38.224;2022-11-15T01:04:35;3.80;;;0.87;;
58240;SDS011;45058;55.772;38.224;2022-11-15T01:07:20;2.30;;;0.60;;
58240;SDS011;45058;55.772;38.224;2022-11-15T01:10:05;8.57;;;0.60;;
58240;SDS011;45058;55.772;38.224;2022-11-15T01:12:50;5.80;;;1.20;;
58240;SDS011;45058;55.772;38.224;2022-11-15T01:15:38;2.27;;;0.70;;
58240;SDS011;45058;55.772;38.224;2022-11-15T01:18:23;3.27;;;0.67;;
58240;SDS011;45058;55.772;38.224;2022-11-15T01:21:12;2.73;;;0.83;;
58240;SDS011;45058;55.772;38.224;2022-11-15T01:23:59;3.97;;;0.80;;
58240;SDS011;45058;55.772;38.224;2022-11-15T01:26:44;3.57;;;0.80;;
58240;SDS011;45058;55.772;38.224;2022-11-15T01:29:29;2.87;;;0.83;;
58240;SDS011;45058;55.772;38.224;2022-11-15T01:32:13;5.93;;;1.03;;
58240;SDS011;45058;55.772;38.224;2022-11-15T01:34:58;10.47;;;1.90;;
58240;SDS011;45058;55.772;38.224;2022-11-15T01:37:42;4.60;;;1.17;;
58240;SDS011;45058;55.772;38.224;2022-11-15T01:40:26;7.03;;;1.47;;
58240;SDS011;45058;55.772;38.224;2022-11-15T01:43:20;1.70;;;0.80;;
58240;SDS011;45058;55.772;38.224;2022-11-15T01:46:17;4.73;;;0.80;;
58240;SDS011;45058;55.772;38.224;2022-11-15T01:49:11;5.90;;;1.07;;
58240;SDS011;45058;55.772;38.224;2022-11-15T01:52:01;7.53;;;1.33;;
58240;SDS011;45058;55.772;38.224;2022-11-15T01:54:48;3.97;;;1.20;;
58240;SDS011;45058;55.772;38.224;2022-11-15T01:57:36;5.80;;;1.60;;
58240;SDS011;45058;55.772;38.224;2022-11-15T02:00:21;4.18;;;1.00;;
58240;SDS011;45058;55.772;38.224;2022-11-15T02:03:06;6.53;;;1.70;;
58240;SDS011;45058;55.772;38.224;2022-11-15T02:05:50;4.77;;;1.67;;
58240;SDS011;45058;55.772;38.224;2022-11-15T02:08:35;5.47;;;1.40;;
58240;SDS011;45058;55.772;38.224;2022-11-15T02:11:19;4.07;;;1.20;;
58240;SDS011;45058;55.772;38.224;2022-11-15T02:14:04;8.27;;;1.60;;
58240;SDS011;45058;55.772;38.224;2022-11-15T02:17:29;5.93;;;1.30;;
58240;SDS011;45058;55.772;38.224;2022-11-15T02:23:49;4.43;;;1.10;;
58240;SDS011;45058;55.772;38.224;2022-11-15T02:33:39;4.37;;;1.00;;
58240;SDS011;45058;55.772;38.224;2022-11-15T02:42:30;3.27;;;0.83;;
58240;SDS011;45058;55.772;38.224;2022-11-15T02:45:40;3.00;;;1.07;;
58240;SDS011;45058;55.772;38.224;2022-11-15T02:48:29;3.60;;;0.90;;
58240;SDS011;45058;55.772;38.224;2022-11-15T02:51:15;4.53;;;1.00;;
58240;SDS011;45058;55.772;38.224;2022-11-15T02:54:00;2.17;;;0.85;;
58240;SDS011;45058;55.772;38.224;2022-11-15T02:56:45;2.00;;;0.70;;
58240;SDS011;45058;55.772;38.224;2022-11-15T03:12:12;4.73;;;1.00;;
58240;SDS011;45058;55.772;38.224;2022-11-15T03:18:06;6.20;;;0.90;;
58240;SDS011;45058;55.772;38.224;2022-11-15T03:20:57;2.33;;;1.00;;
58240;SDS011;45058;55.772;38.224;2022-11-15T03:23:43;3.30;;;0.80;;
58240;SDS011;45058;55.772;38.224;2022-11-15T03:26:27;2.60;;;1.00;;
58240;SDS011;45058;55.772;38.224;2022-11-15T03:29:15;2.92;;;0.80;;
58240;SDS011;45058;55.772;38.224;2022-11-15T03:32:06;5.47;;;1.07;;
58240;SDS011;45058;55.772;38.224;2022-11-15T03:38:06;6.03;;;1.10;;
58240;SDS011;45058;55.772;38.224;2022-11-15T03:40:58;4.57;;;1.00;;
58240;SDS011;45058;55.772;38.224;2022-11-15T03:43:55;2.70;;;1.10;;
58240;SDS011;45058;55.772;38.224;2022-11-15T03:46:47;4.20;;;1.27;;
58240;SDS011;45058;55.772;38.224;2022-11-15T03:49:45;4.07;;;1.40;;
58240;SDS011;45058;55.772;38.224;2022-11-15T03:52:34;3.53;;;0.93;;
58240;SDS011;45058;55.772;38.224;2022-11-15T03:55:19;4.07;;;1.10;;
58240;SDS011;45058;55.772;38.224;2022-11-15T03:58:04;4.95;;;1.08;;
58240;SDS011;45058;55.772;38.224;2022-11-15T04:00:49;6.60;;;1.00;;
58240;SDS011;45058;55.772;38.224;2022-11-15T04:03:33;7.30;;;2.00;;
58240;SDS011;45058;55.772;38.224;2022-11-15T04:06:18;6.80;;;1.10;;
58240;SDS011;45058;55.772;38.224;2022-11-15T04:09:02;3.77;;;1.10;;
58240;SDS011;45058;55.772;38.224;2022-11-15T04:11:46;4.07;;;1.20;;
58240;SDS011;45058;55.772;38.224;2022-11-15T04:14:32;4.28;;;1.20;;
58240;SDS011;45058;55.772;38.224;2022-11-15T04:17:17;7.67;;;1.40;;
58240;SDS011;45058;55.772;38.224;2022-11-15T04:20:05;3.47;;;1.00;;
58240;SDS011;45058;55.772;38.224;2022-11-15T04:26:23;6.73;;;1.60;;
58240;SDS011;45058;55.772;38.224;2022-11-15T04:29:07;5.73;;;1.07;;
58240;SDS011;45058;55.772;38.224;2022-11-15T04:32:11;5.70;;;1.40;;
58240;SDS011;45058;55.772;38.224;2022-11-15T04:34:55;2.73;;;1.03;;
58240;SDS011;45058;55.772;38.224;2022-11-15T04:37:39;5.83;;;1.07;;
58240;SDS011;45058;55.772;38.224;2022-11-15T04:40:24;11.17;;;1.00;;
58240;SDS011;45058;55.772;38.224;2022-11-15T04:43:08;3.93;;;1.30;;
58240;SDS011;45058;55.772;38.224;2022-11-15T04:45:52;1.87;;;0.73;;
58240;SDS011;45058;55.772;38.224;2022-11-15T04:48:37;3.03;;;1.00;;
58240;SDS011;45058;55.772;38.224;2022-11-15T04:51:21;4.50;;;1.23;;
58240;SDS011;45058;55.772;38.224;2022-11-15T04:54:06;4.30;;;1.30;;
58240;SDS011;45058;55.772;38.224;2022-11-15T04:56:50;4.43;;;1.07;;
58240;SDS011;45058;55.772;38.224;2022-11-15T04:59:34;6.00;;;0.90;;
58240;SDS011;45058;55.772;38.224;2022-11-15T05:02:18;4.23;;;1.00;;
58240;SDS011;45058;55.772;38.224;2022-11-15T05:05:03;2.27;;;1.17;;
58240;SDS011;45058;55.772;38.224;2022-11-15T05:07:48;6.37;;;1.13;;
58240;SDS011;45058;55.772;38.224;2022-11-15T05:10:32;5.03;;;1.23;;
58240;SDS011;45058;55.772;38.224;2022-11-15T05:13:16;6.50;;;1.50;;
58240;SDS011;45058;55.772;38.224;2022-11-15T05:16:01;7.93;;;2.07;;
58240;SDS011;45058;55.772;38.224;2022-11-15T05:18:46;7.03;;;3.03;;
58240;SDS011;45058;55.772;38.224;2022-11-15T05:21:34;5.67;;;1.50;;
58240;SDS011;45058;55.772;38.224;2022-11-15T05:24:19;3.97;;;1.20;;
58240;SDS011;45058;55.772;38.224;2022-11-15T05:27:03;7.77;;;1.60;;
58240;SDS011;45058;55.772;38.224;2022-11-15T05:29:48;10.93;;;1.73;;
58240;SDS011;45058;55.772;38.224;2022-11-15T05:32:32;5.67;;;1.37;;
58240;SDS011;45058;55.772;38.224;2022-11-15T05:35:28;7.23;;;1.40;;
58240;SDS011;45058;55.772;38.224;2022-11-15T05:38:15;5.63;;;1.33;;
58240;SDS011;45058;55.772;38.224;2022-11-15T05:41:00;5.23;;;1.10;;
58240;SDS011;45058;55.772;38.224;2022-11-15T05:43:44;7.57;;;1.20;;
58240;SDS011;45058;55.772;38.224;2022-11-15T05:46:29;4.63;;;1.33;;
58240;SDS011;45058;55.772;38.224;2022-11-15T05:49:14;8.07;;;1.33;;
58240;SDS011;45058;55.772;38.224;2022-11-15T05:52:02;4.93;;;1.47;;
58240;SDS011;45058;55.772;38.224;2022-11-15T05:54:49;3.20;;;1.03;;
58240;SDS011;45058;55.772;38.224;2022-11-15T05:57:35;5.65;;;1.30;;
58240;SDS011;45058;55.772;38.224;2022-11-15T06:00:19;5.20;;;1.53;;
58240;SDS011;45058;55.772;38.224;2022-11-15T06:03:04;7.37;;;1.73;;
58240;SDS011;45058;55.772;38.224;2022-11-15T06:05:49;4.87;;;1.33;;
58240;SDS011;45058;55.772;38.224;2022-11-15T06:08:33;10.47;;;1.60;;
58240;SDS011;45058;55.772;38.224;2022-11-15T06:11:17;5.37;;;1.43;;
58240;SDS011;45058;55.772;38.224;2022-11-15T06:14:02;5.70;;;2.00;;
58240;SDS011;45058;55.772;38.224;2022-11-15T06:16:46;5.47;;;2.37;;
58240;SDS011;45058;55.772;38.224;2022-11-15T06:19:31;9.00;;;2.60;;
58240;SDS011;45058;55.772;38.224;2022-11-15T06:22:16;8.88;;;2.63;;
58240;SDS011;45058;55.772;38.224;2022-11-15T06:25:01;9.80;;;2.43;;
58240;SDS011;45058;55.772;38.224;2022-11-15T06:27:50;8.97;;;1.83;;
58240;SDS011;45058;55.772;38.224;2022-11-15T06:30:36;12.27;;;2.10;;
58240;SDS011;45058;55.772;38.224;2022-11-15T06:33:20;10.03;;;2.30;;
58240;SDS011;45058;55.772;38.224;2022-11-15T06:36:09;11.03;;;1.90;;
58240;SDS011;45058;55.772;38.224;2022-11-15T06:38:57;7.83;;;1.67;;
58240;SDS011;45058;55.772;38.224;2022-11-15T06:41:41;4.77;;;1.70;;
58240;SDS011;45058;55.772;38.224;2022-11-15T06:44:26;5.57;;;1.40;;
58240;SDS011;45058;55.772;38.224;2022-11-15T06:47:10;9.53;;;1.30;;
58240;SDS011;45058;55.772;38.224;2022-11-15T06:49:55;7.60;;;1.67;;
58240;SDS011;45058;55.772;38.224;2022-11-15T06:52:39;8.33;;;1.80;;
58240;SDS011;45058;55.772;38.224;2022-11-15T06:55:23;5.30;;;1.30;;
58240;SDS011;45058;55.772;38.224;2022-11-15T06:58:08;10.07;;;1.70;;
58240;SDS011;45058;55.772;38.224;2022-11-15T07:00:52;8.43;;;1.90;;
58240;SDS011;45058;55.772;38.224;2022-11-15T07:03:40;10.53;;;1.83;;
58240;SDS011;45058;55.772;38.224;2022-11-15T07:06:25;11.47;;;2.27;;
58240;SDS011;45058;55.772;38.224;2022-11-15T07:09:10;7.13;;;1.83;;
58240;SDS011;45058;55.772;38.224;2022-11-15T07:11:54;6.97;;;1.70;;
58240;SDS011;45058;55.772;38.224;2022-11-15T07:14:39;5.37;;;2.23;;
58240;SDS011;45058;55.772;38.224;2022-11-15T07:17:24;8.10;;;1.80;;
58240;SDS011;45058;55.772;38.224;2022-11-15T07:20:08;4.73;;;1.70;;
58240;SDS011;45058;55.772;38.224;2022-11-15T07:23:03;8.75;;;1.80;;
58240;SDS011;45058;55.772;38.224;2022-11-15T07:25:48;10.90;;;2.73;;
58240;SDS011;45058;55.772;38.224;2022-11-15T07:28:33;8.93;;;2.00;;
58240;SDS011;45058;55.772;38.224;2022-11-15T07:31:18;3.43;;;1.60;;
58240;SDS011;45058;55.772;38.224;2022-11-15T07:34:02;10.27;;;2.00;;
58240;SDS011;45058;55.772;38.224;2022-11-15T07:36:46;9.57;;;2.37;;
58240;SDS011;45058;55.772;38.224;2022-11-15T07:39:31;6.97;;;2.10;;
58240;SDS011;45058;55.772;38.224;2022-11-15T07:42:15;4.87;;;1.50;;
58240;SDS011;45058;55.772;38.224;2022-11-15T07:45:19;10.60;;;1.70;;
58240;SDS011;45058;55.772;38.224;2022-11-15T07:48:05;8.07;;;2.10;;
58240;SDS011;45058;55.772;38.224;2022-11-15T07:50:50;10.63;;;1.90;;
58240;SDS011;45058;55.772;38.224;2022-11-15T07:53:34;5.27;;;1.73;;
58240;SDS011;45058;55.772;38.224;2022-11-15T07:56:18;7.73;;;1.87;;
58240;SDS011;45058;55.772;38.224;2022-11-15T07:59:04;11.10;;;2.35;;
58240;SDS011;45058;55.772;38.224;2022-11-15T08:01:49;7.53;;;2.50;;
58240;SDS011;45058;55.772;38.224;2022-11-15T08:04:33;21.30;;;2.67;;
58240;SDS011;45058;55.772;38.224;2022-11-15T08:07:18;9.33;;;2.40;;
58240;SDS011;45058;55.772;38.224;2022-11-15T08:10:02;14.07;;;2.13;;
58240;SDS011;45058;55.772;38.224;2022-11-15T08:12:47;10.32;;;2.58;;
58240;SDS011;45058;55.772;38.224;2022-11-15T08:15:32;6.23;;;2.07;;
58240;SDS011;45058;55.772;38.224;2022-11-15T08:18:17;6.45;;;2.17;;
58240;SDS011;45058;55.772;38.224;2022-11-15T08:21:02;8.50;;;2.00;;
58240;SDS011;45058;55.772;38.224;2022-11-15T08:23:47;10.17;;;3.10;;
58240;SDS011;45058;55.772;38.224;2022-11-15T08:26:31;6.37;;;1.87;;
58240;SDS011;45058;55.772;38.224;2022-11-15T08:29:15;7.50;;;2.00;;
58240;SDS011;45058;55.772;38.224;2022-11-15T08:32:00;5.07;;;1.97;;
58240;SDS011;45058;55.772;38.224;2022-11-15T08:34:44;4.37;;;1.97;;
58240;SDS011;45058;55.772;38.224;2022-11-15T08:37:29;5.60;;;1.97;;
58240;SDS011;45058;55.772;38.224;2022-11-15T08:40:14;12.77;;;2.47;;
58240;SDS011;45058;55.772;38.224;2022-11-15T08:42:59;13.32;;;2.92;;
58240;SDS011;45058;55.772;38.224;2022-11-15T08:45:46;10.30;;;3.10;;
58240;SDS011;45058;55.772;38.224;2022-11-15T08:48:30;15.93;;;3.10;;
58240;SDS011;45058;55.772;38.224;2022-11-15T08:51:15;8.67;;;3.20;;
58240;SDS011;45058;55.772;38.224;2022-11-15T08:54:00;9.13;;;3.03;;
58240;SDS011;45058;55.772;38.224;2022-11-15T08:56:44;8.83;;;3.27;;
58240;SDS011;45058;55.772;38.224;2022-11-15T08:59:28;16.10;;;3.43;;
58240;SDS011;45058;55.772;38.224;2022-11-15T09:02:13;11.90;;;3.17;;
58240;SDS011;45058;55.772;38.224;2022-11-15T09:04:59;15.27;;;3.17;;
58240;SDS011;45058;55.772;38.224;2022-11-15T09:07:43;12.87;;;3.70;;
58240;SDS011;45058;55.772;38.224;2022-11-15T09:10:28;11.90;;;3.37;;
58240;SDS011;45058;55.772;38.224;2022-11-15T09:13:12;12.47;;;3.60;;
58240;SDS011;45058;55.772;38.224;2022-11-15T09:15:58;17.43;;;4.23;;
58240;SDS011;45058;55.772;38.224;2022-11-15T09:18:45;15.73;;;3.23;;
58240;SDS011;45058;55.772;38.224;2022-11-15T09:21:30;9.47;;;2.93;;
58240;SDS011;45058;55.772;38.224;2022-11-15T09:24:14;13.07;;;3.00;;
58240;SDS011;45058;55.772;38.224;2022-11-15T09:26:59;13.07;;;3.93;;
58240;SDS011;45058;55.772;38.224;2022-11-15T09:29:43;8.43;;;3.33;;
58240;SDS011;45058;55.772;38.224;2022-11-15T09:32:28;13.67;;;3.20;;
58240;SDS011;45058;55.772;38.224;2022-11-15T09:35:14;10.25;;;3.33;;
58240;SDS011;45058;55.772;38.224;2022-11-15T09:37:58;11.27;;;3.33;;
58240;SDS011;45058;55.772;38.224;2022-11-15T09:40:43;12.03;;;3.53;;
58240;SDS011;45058;55.772;38.224;2022-11-15T09:43:32;10.50;;;4.03;;
58240;SDS011;45058;55.772;38.224;2022-11-15T09:49:53;11.90;;;3.30;;
58240;SDS011;45058;55.772;38.224;2022-11-15T09:52:29;14.43;;;4.57;;
58240;SDS011;45058;55.772;38.224;2022-11-15T09:54:55;14.63;;;4.70;;
58240;SDS011;45058;55.772;38.224;2022-11-15T10:00:19;13.90;;;4.55;;
58240;SDS011;45058;55.772;38.224;2022-11-15T10:05:44;15.13;;;4.57;;
58240;SDS011;45058;55.772;38.224;2022-11-15T10:11:08;18.93;;;4.83;;
58240;SDS011;45058;55.772;38.224;2022-11-15T10:13:37;8.93;;;4.37;;
58240;SDS011;45058;55.772;38.224;2022-11-15T10:19:10;18.63;;;5.80;;
58240;SDS011;45058;55.772;38.224;2022-11-15T10:24:41;15.57;;;4.40;;
58240;SDS011;45058;55.772;38.224;2022-11-15T10:27:12;16.67;;;4.13;;
58240;SDS011;45058;55.772;38.224;2022-11-15T10:29:44;17.33;;;6.07;;
58240;SDS011;45058;55.772;38.224;2022-11-15T10:32:13;23.67;;;5.90;;
58240;SDS011;45058;55.772;38.224;2022-11-15T10:34:40;20.07;;;5.60;;
58240;SDS011;45058;55.772;38.224;2022-11-15T10:37:06;17.07;;;5.40;;
58240;SDS011;45058;55.772;38.224;2022-11-15T10:39:32;15.60;;;5.60;;
58240;SDS011;45058;55.772;38.224;2022-11-15T10:42:17;14.30;;;4.80;;
58240;SDS011;45058;55.772;38.224;2022-11-15T10:44:52;13.73;;;4.50;;
58240;SDS011;45058;55.772;38.224;2022-11-15T10:47:29;14.07;;;5.20;;
58240;SDS011;45058;55.772;38.224;2022-11-15T10:50:07;12.70;;;4.27;;
58240;SDS011;45058;55.772;38.224;2022-11-15T10:52:52;19.73;;;4.53;;
58240;SDS011;45058;55.772;38.224;2022-11-15T10:55:30;18.73;;;4.60;;
58240;SDS011;45058;55.772;38.224;2022-11-15T10:58:04;19.27;;;4.73;;
58240;SDS011;45058;55.772;38.224;2022-11-15T11:00:44;13.33;;;4.70;;
58240;SDS011;45058;55.772;38.224;2022-11-15T11:06:03;13.60;;;4.40;;
58240;SDS011;45058;55.772;38.224;2022-11-15T11:08:37;17.73;;;5.17;;
58240;SDS011;45058;55.772;38.224;2022-11-15T11:11:04;13.77;;;4.80;;
58240;SDS011;45058;55.772;38.224;2022-11-15T11:13:32;22.27;;;5.47;;
58240;SDS011;45058;55.772;38.224;2022-11-15T11:18:38;15.48;;;5.75;;
58240;SDS011;45058;55.772;38.224;2022-11-15T11:21:11;18.20;;;7.57;;
58240;SDS011;45058;55.772;38.224;2022-11-15T11:24:01;23.27;;;11.43;;
58240;SDS011;45058;55.772;38.224;2022-11-15T11:26:40;26.13;;;13.67;;
58240;SDS011;45058;55.772;38.224;2022-11-15T11:43:10;61.23;;;27.00;;
58240;SDS011;45058;55.772;38.224;2022-11-15T11:46:06;59.93;;;26.10;;
58240;SDS011;45058;55.772;38.224;2022-11-15T11:48:59;27.83;;;11.77;;
58240;SDS011;45058;55.772;38.224;2022-11-15T11:51:32;23.47;;;9.20;;
58240;SDS011;45058;55.772;38.224;2022-11-15T11:54:12;17.30;;;6.50;;
58240;SDS011;45058;55.772;38.224;2022-11-15T11:57:02;21.27;;;6.87;;
58240;SDS011;45058;55.772;38.224;2022-11-15T11:59:36;20.27;;;7.57;;
58240;SDS011;45058;55.772;38.224;2022-11-15T12:02:16;28.23;;;8.33;;
58240;SDS011;45058;55.772;38.224;2022-11-15T12:04:48;23.03;;;7.80;;
58240;SDS011;45058;55.772;38.224;2022-11-15T12:07:19;23.27;;;8.17;;
58240;SDS011;45058;55.772;38.224;2022-11-15T12:12:25;18.50;;;6.20;;
58240;SDS011;45058;55.772;38.224;2022-11-15T12:15:13;19.70;;;5.20;;
58240;SDS011;45058;55.772;38.224;2022-11-15T12:17:42;18.37;;;7.00;;
58240;SDS011;45058;55.772;38.224;2022-11-15T12:20:15;19.00;;;6.37;;
58240;SDS011;45058;55.772;38.224;2022-11-15T12:22:52;17.67;;;5.67;;
58240;SDS011;45058;55.772;38.224;2022-11-15T12:25:39;16.87;;;4.77;;
58240;SDS011;45058;55.772;38.224;2022-11-15T12:29:04;17.53;;;4.67;;
58240;SDS011;45058;55.772;38.224;2022-11-15T12:34:00;21.50;;;4.93;;
58240;SDS011;45058;55.772;38.224;2022-11-15T12:36:35;17.33;;;5.77;;
58240;SDS011;45058;55.772;38.224;2022-11-15T12:39:07;22.10;;;6.38;;
58240;SDS011;45058;55.772;38.224;2022-11-15T12:41:38;19.03;;;6.30;;
58240;SDS011;45058;55.772;38.224;2022-11-15T12:44:12;17.97;;;5.03;;
58240;SDS011;45058;55.772;38.224;2022-11-15T12:47:00;13.57;;;5.07;;
58240;SDS011;45058;55.772;38.224;2022-11-15T12:52:15;16.43;;;6.37;;
58240;SDS011;45058;55.772;38.224;2022-11-15T12:59:53;19.53;;;6.70;;
58240;SDS011;45058;55.772;38.224;2022-11-15T13:02:35;22.03;;;7.23;;
58240;SDS011;45058;55.772;38.224;2022-11-15T13:10:29;15.73;;;5.50;;
58240;SDS011;45058;55.772;38.224;2022-11-15T13:13:06;22.73;;;6.63;;
58240;SDS011;45058;55.772;38.224;2022-11-15T13:18:18;29.47;;;5.20;;
58240;SDS011;45058;55.772;38.224;2022-11-15T13:20:51;21.10;;;4.83;;
58240;SDS011;45058;55.772;38.224;2022-11-15T13:23:17;20.00;;;5.63;;
58240;SDS011;45058;55.772;38.224;2022-11-15T13:28:29;23.67;;;5.47;;
58240;SDS011;45058;55.772;38.224;2022-11-15T13:30:59;16.27;;;5.43;;
58240;SDS011;45058;55.772;38.224;2022-11-15T13:36:01;23.73;;;8.20;;
58240;SDS011;45058;55.772;38.224;2022-11-15T13:38:31;18.30;;;6.47;;
58240;SDS011;45058;55.772;38.224;2022-11-15T13:41:20;14.20;;;5.27;;
58240;SDS011;45058;55.772;38.224;2022-11-15T13:43:48;14.67;;;4.57;;
58240;SDS011;45058;55.772;38.224;2022-11-15T13:49:08;18.70;;;5.00;;
58240;SDS011;45058;55.772;38.224;2022-11-15T13:51:46;13.40;;;4.53;;
58240;SDS011;45058;55.772;38.224;2022-11-15T13:56:45;17.17;;;6.10;;
58240;SDS011;45058;55.772;38.224;2022-11-15T14:01:50;16.55;;;6.78;;
58240;SDS011;45058;55.772;38.224;2022-11-15T14:04:18;15.40;;;6.47;;
58240;SDS011;45058;55.772;38.224;2022-11-15T14:06:47;23.20;;;6.77;;
58240;SDS011;45058;55.772;38.224;2022-11-15T14:12:02;10.80;;;5.38;;
58240;SDS011;45058;55.772;38.224;2022-11-15T14:14:45;14.63;;;5.87;;
58240;SDS011;45058;55.772;38.224;2022-11-15T14:19:57;18.83;;;5.93;;
58240;SDS011;45058;55.772;38.224;2022-11-15T14:22:24;14.37;;;5.43;;
58240;SDS011;45058;55.772;38.224;2022-11-15T14:27:54;22.93;;;9.40;;
58240;SDS011;45058;55.772;38.224;2022-11-15T14:30:55;19.63;;;7.43;;
58240;SDS011;45058;55.772;38.224;2022-11-15T14:36:05;15.13;;;5.80;;
58240;SDS011;45058;55.772;38.224;2022-11-15T14:38:36;15.07;;;5.38;;
58240;SDS011;45058;55.772;38.224;2022-11-15T14:41:02;19.43;;;6.50;;
58240;SDS011;45058;55.772;38.224;2022-11-15T14:43:28;16.63;;;7.00;;
58240;SDS011;45058;55.772;38.224;2022-11-15T14:45:55;14.20;;;5.50;;
58240;SDS011;45058;55.772;38.224;2022-11-15T14:48:21;13.13;;;5.27;;
58240;SDS011;45058;55.772;38.224;2022-11-15T14:50:47;12.77;;;5.50;;
58240;SDS011;45058;55.772;38.224;2022-11-15T14:53:17;12.80;;;6.07;;
58240;SDS011;45058;55.772;38.224;2022-11-15T14:55:44;18.53;;;6.43;;
58240;SDS011;45058;55.772;38.224;2022-11-15T14:58:10;15.57;;;6.90;;
58240;SDS011;45058;55.772;38.224;2022-11-15T15:00:37;13.77;;;5.77;;
58240;SDS011;45058;55.772;38.224;2022-11-15T15:03:04;17.67;;;5.50;;
58240;SDS011;45058;55.772;38.224;2022-11-15T15:05:35;15.43;;;6.37;;
58240;SDS011;45058;55.772;38.224;2022-11-15T15:08:05;18.77;;;6.50;;
58240;SDS011;45058;55.772;38.224;2022-11-15T15:10:33;17.53;;;6.80;;
58240;SDS011;45058;55.772;38.224;2022-11-15T15:13:02;30.47;;;8.33;;
58240;SDS011;45058;55.772;38.224;2022-11-15T15:15:33;21.70;;;8.80;;
58240;SDS011;45058;55.772;38.224;2022-11-15T15:18:01;23.27;;;9.77;;
58240;SDS011;45058;55.772;38.224;2022-11-15T15:20:28;21.50;;;10.67;;
58240;SDS011;45058;55.772;38.224;2022-11-15T15:22:54;17.30;;;7.40;;
58240;SDS011;45058;55.772;38.224;2022-11-15T15:25:22;17.23;;;6.57;;
58240;SDS011;45058;55.772;38.224;2022-11-15T15:27:58;11.27;;;5.73;;
58240;SDS011;45058;55.772;38.224;2022-11-15T15:30:25;14.23;;;5.93;;
58240;SDS011;45058;55.772;38.224;2022-11-15T15:32:52;15.73;;;6.30;;
58240;SDS011;45058;55.772;38.224;2022-11-15T15:35:19;13.87;;;6.30;;
58240;SDS011;45058;55.772;38.224;2022-11-15T15:37:46;18.93;;;8.00;;
58240;SDS011;45058;55.772;38.224;2022-11-15T15:40:15;17.10;;;7.17;;
58240;SDS011;45058;55.772;38.224;2022-11-15T15:42:46;14.73;;;7.17;;
58240;SDS011;45058;55.772;38.224;2022-11-15T15:45:13;16.27;;;7.13;;
58240;SDS011;45058;55.772;38.224;2022-11-15T15:47:40;18.70;;;8.63;;
58240;SDS011;45058;55.772;38.224;2022-11-15T15:52:54;13.10;;;6.75;;
58240;SDS011;45058;55.772;38.224;2022-11-15T15:55:22;16.37;;;7.60;;
58240;SDS011;45058;55.772;38.224;2022-11-15T15:57:48;17.33;;;6.87;;
58240;SDS011;45058;55.772;38.224;2022-11-15T16:00:15;18.17;;;8.03;;
58240;SDS011;45058;55.772;38.224;2022-11-15T16:02:42;21.97;;;8.30;;
58240;SDS011;45058;55.772;38.224;2022-11-15T16:05:09;23.47;;;7.57;;
58240;SDS011;45058;55.772;38.224;2022-11-15T16:07:35;21.37;;;8.30;;
58240;SDS011;45058;55.772;38.224;2022-11-15T16:10:04;17.40;;;7.67;;
58240;SDS011;45058;55.772;38.224;2022-11-15T16:12:47;20.43;;;8.20;;
58240;SDS011;45058;55.772;38.224;2022-11-15T16:15:13;19.87;;;7.83;;
58240;SDS011;45058;55.772;38.224;2022-11-15T16:17:40;15.37;;;7.57;;
58240;SDS011;45058;55.772;38.224;2022-11-15T16:20:14;25.77;;;8.93;;
58240;SDS011;45058;55.772;38.224;2022-11-15T16:22:49;17.60;;;8.30;;
58240;SDS011;45058;55.772;38.224;2022-11-15T16:25:15;16.70;;;8.80;;
58240;SDS011;45058;55.772;38.224;2022-11-15T16:27:41;17.23;;;8.30;;
58240;SDS011;45058;55.772;38.224;2022-11-15T16:30:12;16.53;;;7.30;;
58240;SDS011;45058;55.772;38.224;2022-11-15T16:32:40;14.63;;;7.03;;
58240;SDS011;45058;55.772;38.224;2022-11-15T16:35:07;16.13;;;7.70;;
58240;SDS011;45058;55.772;38.224;2022-11-15T16:37:38;15.73;;;7.20;;
58240;SDS011;45058;55.772;38.224;2022-11-15T16:40:29;15.53;;;6.77;;
58240;SDS011;45058;55.772;38.224;2022-11-15T16:42:57;15.97;;;7.17;;
58240;SDS011;45058;55.772;38.224;2022-11-15T16:45:24;18.20;;;8.47;;
58240;SDS011;45058;55.772;38.224;2022-11-15T16:47:52;19.33;;;9.13;;
58240;SDS011;45058;55.772;38.224;2022-11-15T16:50:23;15.27;;;8.23;;
58240;SDS011;45058;55.772;38.224;2022-11-15T16:52:55;19.33;;;8.43;;
58240;SDS011;45058;55.772;38.224;2022-11-15T16:55:23;16.97;;;7.93;;
58240;SDS011;45058;55.772;38.224;2022-11-15T16:57:53;15.53;;;8.20;;
58240;SDS011;45058;55.772;38.224;2022-11-15T17:00:20;15.97;;;8.30;;
58240;SDS011;45058;55.772;38.224;2022-11-15T17:02:47;21.93;;;8.27;;
58240;SDS011;45058;55.772;38.224;2022-11-15T17:05:15;12.83;;;7.23;;
58240;SDS011;45058;55.772;38.224;2022-11-15T17:07:42;17.50;;;7.70;;
58240;SDS011;45058;55.772;38.224;2022-11-15T17:10:10;17.23;;;8.20;;
58240;SDS011;45058;55.772;38.224;2022-11-15T17:12:37;18.30;;;8.00;;
58240;SDS011;45058;55.772;38.224;2022-11-15T17:15:03;17.87;;;8.43;;
58240;SDS011;45058;55.772;38.224;2022-11-15T17:17:30;17.07;;;8.63;;
58240;SDS011;45058;55.772;38.224;2022-11-15T17:19:56;19.10;;;9.40;;
58240;SDS011;45058;55.772;38.224;2022-11-15T17:22:23;24.00;;;9.73;;
58240;SDS011;45058;55.772;38.224;2022-11-15T17:24:49;17.40;;;9.20;;
58240;SDS011;45058;55.772;38.224;2022-11-15T17:27:15;16.37;;;8.60;;
58240;SDS011;45058;55.772;38.224;2022-11-15T17:29:41;17.00;;;8.40;;
58240;SDS011;45058;55.772;38.224;2022-11-15T17:32:08;14.53;;;7.73;;
58240;SDS011;45058;55.772;38.224;2022-11-15T17:34:34;21.50;;;9.30;;
58240;SDS011;45058;55.772;38.224;2022-11-15T17:37:00;17.07;;;8.90;;
58240;SDS011;45058;55.772;38.224;2022-11-15T17:39:26;17.60;;;9.00;;
58240;SDS011;45058;55.772;38.224;2022-11-15T17:41:52;18.47;;;9.80;;
58240;SDS011;45058;55.772;38.224;2022-11-15T17:44:18;17.37;;;9.70;;